createdAt,value
2022-10-23T00:02:02.544Z,62.78
2022-10-23T00:04:31.171Z,63.08
2022-10-23T00:07:00.173Z,63.06
2022-10-23T00:09:28.809Z,63.06
2022-10-23T00:11:58.899Z,63.13
2022-10-23T00:14:27.439Z,63.12
2022-10-23T00:16:55.910Z,63.19
2022-10-23T00:19:24.930Z,63.56
2022-10-23T00:21:53.519Z,63.34
2022-10-23T00:24:22.259Z,63.34
2022-10-23T00:26:51.889Z,63.46
2022-10-23T00:29:21.873Z,63.51
2022-10-23T00:31:50.341Z,63.64
2022-10-23T00:34:19.659Z,63.53
2022-10-23T00:36:48.209Z,63.30
2022-10-23T00:39:16.719Z,63.51
2022-10-23T00:41:45.201Z,63.59
2022-10-23T00:44:51.909Z,63.74
2022-10-23T00:47:21.910Z,63.76
2022-10-23T00:49:50.470Z,63.80
2022-10-23T00:52:19.069Z,63.66
2022-10-23T00:54:47.591Z,63.91
2022-10-23T00:57:17.349Z,63.82
2022-10-23T00:59:46.069Z,63.71
2022-10-23T01:02:14.701Z,63.76
2022-10-23T01:04:44.879Z,63.84
2022-10-23T01:07:19.010Z,64.09
2022-10-23T01:09:56.031Z,64.16
2022-10-23T01:12:32.312Z,63.81
2022-10-23T01:15:07.724Z,63.74
2022-10-23T01:17:43.751Z,63.73
2022-10-23T01:20:27.049Z,63.79
2022-10-23T01:23:30.148Z,63.88
2022-10-23T01:26:07.649Z,63.88
2022-10-23T01:28:43.109Z,64.04
2022-10-23T01:31:17.690Z,64.14
2022-10-23T01:33:50.569Z,63.53
2022-10-23T01:36:22.290Z,64.19
2022-10-23T01:38:56.444Z,64.39
2022-10-23T01:41:31.049Z,64.03
2022-10-23T01:44:06.090Z,63.83
2022-10-23T01:46:37.724Z,64.05
2022-10-23T01:49:09.504Z,64.28
2022-10-23T01:51:42.284Z,64.24
2022-10-23T01:54:14.725Z,64.01
2022-10-23T01:56:46.084Z,64.47
2022-10-23T01:59:22.584Z,64.42
2022-10-23T02:01:54.966Z,64.61
2022-10-23T02:04:28.567Z,64.61
2022-10-23T02:06:57.044Z,64.06
2022-10-23T02:09:25.744Z,64.43
2022-10-23T02:11:59.305Z,64.42
2022-10-23T02:14:39.044Z,64.55
2022-10-23T02:17:16.785Z,64.84
2022-10-23T02:19:50.210Z,64.58
2022-10-23T02:22:23.544Z,64.56
2022-10-23T02:24:54.764Z,64.28
2022-10-23T02:27:28.344Z,64.41
2022-10-23T02:30:03.284Z,64.52
2022-10-23T02:32:32.009Z,64.46
2022-10-23T02:35:01.145Z,64.62
2022-10-23T02:37:29.767Z,64.30
2022-10-23T02:39:58.477Z,64.04
2022-10-23T02:42:35.344Z,64.53
2022-10-23T02:45:10.684Z,64.44
2022-10-23T02:47:53.145Z,64.33
2022-10-23T02:50:30.948Z,64.48
2022-10-23T02:53:06.594Z,64.66
2022-10-23T02:55:40.784Z,64.42
2022-10-23T02:58:14.154Z,64.13
2022-10-23T03:00:47.904Z,64.73
2022-10-23T03:03:20.934Z,64.64
2022-10-23T03:05:49.554Z,64.34
2022-10-23T03:08:18.004Z,64.58
2022-10-23T03:10:46.494Z,64.37
2022-10-23T03:13:15.044Z,64.63
2022-10-23T03:15:45.230Z,64.79
2022-10-23T03:18:13.854Z,64.71
2022-10-23T03:20:42.425Z,64.17
2022-10-23T03:23:14.264Z,64.28
2022-10-23T03:25:42.825Z,64.29
2022-10-23T03:28:11.314Z,64.18
2022-10-23T03:30:39.784Z,64.34
2022-10-23T03:33:09.734Z,64.16
2022-10-23T03:35:38.238Z,64.57
2022-10-23T03:38:06.764Z,64.08
2022-10-23T03:40:35.344Z,64.65
2022-10-23T03:43:03.804Z,64.44
2022-10-23T03:45:32.844Z,64.22
2022-10-23T03:48:01.465Z,64.85
2022-10-23T03:50:31.324Z,64.71
2022-10-23T03:52:59.785Z,64.73
2022-10-23T03:55:28.503Z,64.60
2022-10-23T03:57:57.034Z,64.73
2022-10-23T04:00:25.565Z,64.72
2022-10-23T04:02:54.045Z,64.68
2022-10-23T04:05:22.564Z,64.88
2022-10-23T04:07:52.504Z,64.61
2022-10-23T04:10:21.204Z,64.77
2022-10-23T04:12:49.664Z,64.53
2022-10-23T04:15:18.248Z,64.72
2022-10-23T04:17:46.831Z,64.66
2022-10-23T04:20:15.395Z,64.31
2022-10-23T04:22:44.105Z,64.62
2022-10-23T04:25:14.775Z,64.80
2022-10-23T04:27:43.358Z,64.30
2022-10-23T04:30:13.265Z,64.72
2022-10-23T04:32:41.944Z,64.40
2022-10-23T04:35:10.824Z,64.75
2022-10-23T04:37:39.514Z,65.23
2022-10-23T04:40:09.484Z,65.35
2022-10-23T04:42:39.544Z,65.34
2022-10-23T04:45:09.378Z,65.37
2022-10-23T04:47:37.904Z,65.46
2022-10-23T04:50:07.496Z,65.06
2022-10-23T04:52:35.984Z,64.60
2022-10-23T04:55:04.654Z,64.27
2022-10-23T04:57:33.184Z,64.12
2022-10-23T05:00:03.405Z,64.05
2022-10-23T05:02:31.924Z,64.50
2022-10-23T05:05:00.382Z,64.36
2022-10-23T05:07:28.846Z,63.95
2022-10-23T05:09:57.337Z,65.01
2022-10-23T05:12:26.859Z,65.29
2022-10-23T05:14:55.714Z,65.39
2022-10-23T05:17:30.018Z,65.59
2022-10-23T05:20:01.557Z,65.47
2022-10-23T05:22:34.296Z,65.10
2022-10-23T05:25:03.136Z,65.38
2022-10-23T05:27:31.665Z,65.06
2022-10-23T05:30:00.245Z,65.22
2022-10-23T05:32:33.245Z,65.00
2022-10-23T05:35:04.367Z,64.89
2022-10-23T05:37:33.136Z,65.37
2022-10-23T05:40:01.694Z,65.23
2022-10-23T05:42:30.284Z,65.14
2022-10-23T05:44:58.725Z,65.02
2022-10-23T05:47:27.184Z,65.64
2022-10-23T05:49:57.184Z,65.05
2022-10-23T05:52:25.805Z,65.37
2022-10-23T05:54:54.355Z,65.37
2022-10-23T05:57:22.870Z,65.60
2022-10-23T05:59:51.354Z,65.28
2022-10-23T06:02:19.917Z,65.31
2022-10-23T06:04:48.484Z,65.63
2022-10-23T06:07:18.425Z,65.71
2022-10-23T06:09:46.834Z,65.70
2022-10-23T06:12:15.375Z,65.34
2022-10-23T06:14:43.845Z,65.63
2022-10-23T06:17:12.345Z,65.64
2022-10-23T06:19:40.895Z,65.93
2022-10-23T06:22:09.491Z,65.87
2022-10-23T06:24:39.474Z,65.97
2022-10-23T06:27:07.985Z,65.53
2022-10-23T06:29:36.484Z,65.67
2022-10-23T06:32:05.136Z,65.81
2022-10-23T06:34:33.856Z,65.76
2022-10-23T06:37:02.365Z,65.76
2022-10-23T06:39:32.174Z,65.40
2022-10-23T06:42:02.425Z,65.50
2022-10-23T06:44:30.904Z,65.92
2022-10-23T06:47:00.867Z,65.55
2022-10-23T06:49:29.367Z,65.68
2022-10-23T06:51:57.784Z,65.90
2022-10-23T06:54:26.325Z,65.61
2022-10-23T06:56:54.865Z,65.34
2022-10-23T06:59:24.919Z,65.23
2022-10-23T07:04:26.924Z,64.96
2022-10-23T07:06:57.447Z,65.07
2022-10-23T07:09:25.944Z,65.02
2022-10-23T07:11:54.467Z,65.12
2022-10-23T07:14:22.895Z,65.08
2022-10-23T07:16:52.765Z,65.41
2022-10-23T07:19:21.294Z,65.12
2022-10-23T07:21:49.835Z,64.93
2022-10-23T07:24:18.696Z,65.27
2022-10-23T07:26:47.235Z,65.51
2022-10-23T07:29:15.764Z,65.28
2022-10-23T07:31:44.214Z,65.65
2022-10-23T07:34:14.246Z,65.54
2022-10-23T07:36:42.764Z,65.74
2022-10-23T07:39:12.094Z,65.45
2022-10-23T07:41:40.604Z,65.15
2022-10-23T07:44:09.088Z,65.46
2022-10-23T07:46:37.554Z,65.33
2022-10-23T07:49:06.074Z,65.69
2022-10-23T07:51:36.004Z,65.67
2022-10-23T07:54:04.585Z,65.75
2022-10-23T07:56:33.126Z,65.50
2022-10-23T07:59:01.565Z,65.78
2022-10-23T08:01:34.785Z,65.78
2022-10-23T08:04:03.564Z,65.57
2022-10-23T08:06:32.349Z,65.86
2022-10-23T08:09:05.489Z,65.33
2022-10-23T08:11:36.614Z,65.59
2022-10-23T08:14:06.714Z,65.55
2022-10-23T08:16:37.488Z,65.71
2022-10-23T08:19:06.975Z,65.84
2022-10-23T08:21:35.525Z,65.15
2022-10-23T08:24:06.186Z,64.26
2022-10-23T08:26:34.645Z,64.51
2022-10-23T08:29:03.245Z,64.79
2022-10-23T08:31:31.765Z,64.58
2022-10-23T08:34:00.646Z,64.99
2022-10-23T08:36:30.544Z,64.99
2022-10-23T08:38:59.690Z,66.01
2022-10-23T08:41:34.045Z,65.07
2022-10-23T08:44:09.914Z,65.43
2022-10-23T08:46:43.484Z,65.77
2022-10-23T08:49:26.465Z,65.86
2022-10-23T08:51:58.826Z,66.26
2022-10-23T08:54:32.974Z,65.84
2022-10-23T08:57:11.835Z,66.32
2022-10-23T08:59:45.535Z,65.89
2022-10-23T09:02:19.501Z,65.90
2022-10-23T09:04:51.094Z,65.97
2022-10-23T09:07:29.925Z,66.07
2022-10-23T09:10:08.959Z,65.61
2022-10-23T09:12:39.795Z,66.13
2022-10-23T09:15:25.644Z,66.53
2022-10-23T09:18:00.346Z,65.31
2022-10-23T09:20:34.325Z,66.13
2022-10-23T09:23:05.726Z,65.35
2022-10-23T09:25:39.391Z,64.72
2022-10-23T09:28:20.375Z,65.86
2022-10-23T09:30:50.274Z,65.36
2022-10-23T09:33:21.928Z,64.93
2022-10-23T09:35:55.685Z,64.93
2022-10-23T09:38:30.119Z,65.68
2022-10-23T09:41:01.525Z,64.92
2022-10-23T09:43:31.585Z,65.08
2022-10-23T09:46:01.754Z,65.02
2022-10-23T09:48:30.505Z,65.65
2022-10-23T09:51:00.585Z,65.09
2022-10-23T09:53:33.904Z,65.14
2022-10-23T09:56:04.544Z,65.34
2022-10-23T09:58:40.177Z,65.06
2022-10-23T10:01:08.489Z,65.65
2022-10-23T10:03:39.064Z,65.26
2022-10-23T10:06:07.965Z,65.75
2022-10-23T10:08:42.514Z,65.79
2022-10-23T10:11:17.426Z,65.62
2022-10-23T10:14:08.625Z,65.14
2022-10-23T10:16:48.434Z,65.36
2022-10-23T10:19:38.025Z,64.84
2022-10-23T10:22:18.285Z,65.11
2022-10-23T10:24:55.127Z,64.87
2022-10-23T10:27:41.045Z,64.64
2022-10-23T10:30:15.065Z,64.34
2022-10-23T10:32:51.406Z,64.51
2022-10-23T10:35:38.716Z,64.80
2022-10-23T10:38:48.525Z,65.06
2022-10-23T10:41:42.256Z,64.70
2022-10-23T10:44:47.924Z,64.79
2022-10-23T10:47:24.510Z,64.75
2022-10-23T10:50:07.722Z,64.77
2022-10-23T10:52:48.278Z,64.65
2022-10-23T10:55:24.190Z,64.58
2022-10-23T10:58:00.068Z,64.76
2022-10-23T11:00:31.449Z,64.65
2022-10-23T11:03:04.919Z,64.53
2022-10-23T11:05:37.449Z,64.60
2022-10-23T11:08:11.513Z,64.63
2022-10-23T11:10:42.719Z,64.84
2022-10-23T11:13:24.820Z,64.66
2022-10-23T11:15:56.071Z,64.83
2022-10-23T11:18:29.849Z,64.70
2022-10-23T11:21:13.879Z,64.82
2022-10-23T11:24:13.614Z,64.68
2022-10-23T11:26:56.980Z,64.85
2022-10-23T11:30:12.143Z,65.01
2022-10-23T11:33:14.401Z,65.26
2022-10-23T11:36:08.159Z,65.18
2022-10-23T11:38:38.949Z,65.23
2022-10-23T11:42:04.742Z,65.13
2022-10-23T11:44:47.120Z,65.09
2022-10-23T11:47:39.713Z,64.99
2022-10-23T11:50:26.578Z,65.28
2022-10-23T11:53:13.909Z,64.86
2022-10-23T11:56:02.055Z,64.82
2022-10-23T11:58:47.271Z,64.98
2022-10-23T12:01:31.651Z,64.56
2022-10-23T12:04:05.470Z,64.40
2022-10-23T12:06:43.630Z,64.18
2022-10-23T12:09:28.020Z,64.09
2022-10-23T12:12:20.280Z,64.17
2022-10-23T12:14:54.064Z,63.75
2022-10-23T12:17:36.571Z,63.92
2022-10-23T12:20:26.320Z,63.47
2022-10-23T12:23:16.090Z,63.48
2022-10-23T12:25:59.089Z,63.77
2022-10-23T12:28:36.401Z,63.75
2022-10-23T12:31:20.420Z,64.06
2022-10-23T12:33:59.320Z,64.09
2022-10-23T12:36:52.750Z,64.10
2022-10-23T12:39:29.346Z,64.12
2022-10-23T12:42:00.733Z,64.17
2022-10-23T12:44:30.659Z,64.03
2022-10-23T12:47:03.230Z,64.07
2022-10-23T12:49:34.899Z,64.17
2022-10-23T12:52:09.600Z,64.19
2022-10-23T12:54:41.804Z,64.12
2022-10-23T12:57:24.789Z,64.03
2022-10-23T12:59:59.535Z,64.04
2022-10-23T13:02:30.466Z,64.10
2022-10-23T13:05:08.522Z,64.05
2022-10-23T13:07:44.425Z,63.85
2022-10-23T13:10:17.889Z,63.30
2022-10-23T13:12:55.115Z,63.07
2022-10-23T13:15:45.779Z,63.17
2022-10-23T13:18:28.791Z,62.95
2022-10-23T13:21:03.822Z,62.71
2022-10-23T13:23:41.874Z,63.22
2022-10-23T13:26:36.229Z,63.12
2022-10-23T13:29:26.792Z,63.38
2022-10-23T13:31:55.590Z,63.43
2022-10-23T13:34:30.451Z,63.68
2022-10-23T13:37:04.370Z,63.61
2022-10-23T13:39:35.132Z,63.49
2022-10-23T13:42:18.240Z,63.71
2022-10-23T13:44:54.501Z,63.67
2022-10-23T13:47:26.400Z,63.67
2022-10-23T13:49:55.970Z,63.97
2022-10-23T13:52:24.879Z,63.87
2022-10-23T13:55:00.612Z,63.95
2022-10-23T13:57:30.473Z,63.80
2022-10-23T14:00:10.429Z,63.85
2022-10-23T14:02:40.962Z,63.71
2022-10-23T14:05:11.340Z,64.05
2022-10-23T14:07:44.275Z,64.13
2022-10-23T14:10:17.049Z,64.11
2022-10-23T14:12:54.011Z,64.09
2022-10-23T14:15:25.830Z,64.10
2022-10-23T14:17:59.642Z,64.34
2022-10-23T14:20:31.725Z,64.33
2022-10-23T14:23:03.050Z,64.68
2022-10-23T14:25:34.660Z,64.37
2022-10-23T14:28:06.816Z,64.73
2022-10-23T14:30:42.329Z,64.73
2022-10-23T14:33:14.241Z,64.69
2022-10-23T14:35:45.329Z,64.55
2022-10-23T14:38:15.132Z,64.68
2022-10-23T14:40:44.841Z,64.65
2022-10-23T14:43:14.370Z,64.65
2022-10-23T14:45:45.492Z,64.66
2022-10-23T14:48:14.559Z,64.64
2022-10-23T14:50:46.681Z,64.74
2022-10-23T14:53:15.847Z,64.46
2022-10-23T14:55:44.302Z,64.64
2022-10-23T14:58:12.785Z,64.66
2022-10-23T15:00:41.259Z,64.62
2022-10-23T15:03:11.150Z,64.67
2022-10-23T15:05:43.334Z,64.71
2022-10-23T15:08:11.812Z,64.77
2022-10-23T15:10:40.499Z,64.63
2022-10-23T15:13:09.130Z,64.76
2022-10-23T15:15:37.670Z,64.42
2022-10-23T15:18:06.350Z,64.38
2022-10-23T15:20:36.460Z,64.46
2022-10-23T15:23:04.995Z,64.48
2022-10-23T15:25:33.535Z,64.49
2022-10-23T15:28:02.074Z,64.55
2022-10-23T15:30:30.550Z,64.58
2022-10-23T15:32:59.160Z,64.40
2022-10-23T15:37:58.629Z,64.08
2022-10-23T15:40:27.093Z,64.01
2022-10-23T15:42:55.609Z,63.74
2022-10-23T15:45:26.571Z,63.80
2022-10-23T15:47:57.580Z,63.96
2022-10-23T15:50:26.351Z,63.85
2022-10-23T15:52:54.860Z,63.82
2022-10-23T15:55:25.170Z,63.69
2022-10-23T15:57:53.720Z,63.43
2022-10-23T16:00:22.450Z,63.10
2022-10-23T16:02:51.009Z,63.02
2022-10-23T16:05:19.581Z,62.62
2022-10-23T16:07:47.983Z,62.52
2022-10-23T16:10:17.180Z,62.49
2022-10-23T16:12:47.101Z,62.57
2022-10-23T16:15:15.639Z,62.68
2022-10-23T16:17:44.240Z,62.57
2022-10-23T16:20:13.391Z,61.38
2022-10-23T16:22:44.848Z,61.21
2022-10-23T16:25:13.751Z,60.89
2022-10-23T16:27:42.587Z,61.25
2022-10-23T16:30:14.529Z,61.31
2022-10-23T16:32:43.151Z,61.53
2022-10-23T16:35:13.094Z,61.63
2022-10-23T16:37:42.006Z,62.03
2022-10-23T16:40:12.021Z,62.03
2022-10-23T16:42:42.173Z,62.30
2022-10-23T16:45:13.360Z,62.59
2022-10-23T16:47:42.166Z,62.48
2022-10-23T16:50:10.890Z,62.75
2022-10-23T16:52:39.912Z,62.45
2022-10-23T16:55:09.900Z,62.78
2022-10-23T16:57:38.600Z,62.77
2022-10-23T17:00:08.720Z,62.97
2022-10-23T17:02:39.374Z,63.17
2022-10-23T17:05:08.563Z,63.22
2022-10-23T17:07:37.385Z,63.48
2022-10-23T17:10:06.780Z,63.41
2022-10-23T17:12:35.370Z,63.37
2022-10-23T17:15:03.932Z,63.75
2022-10-23T17:17:32.480Z,63.73
2022-10-23T17:20:02.480Z,63.71
2022-10-23T17:22:31.180Z,64.22
2022-10-23T17:25:00.310Z,64.08
2022-10-23T17:27:29.009Z,64.58
2022-10-23T17:29:58.346Z,65.00
2022-10-23T17:32:27.362Z,64.78
2022-10-23T17:34:56.249Z,64.85
2022-10-23T17:37:26.346Z,65.41
2022-10-23T17:39:56.381Z,65.45
2022-10-23T17:42:26.609Z,65.71
2022-10-23T17:44:55.421Z,65.20
2022-10-23T17:47:23.998Z,65.36
2022-10-23T17:49:52.829Z,65.74
2022-10-23T17:52:21.460Z,65.34
2022-10-23T17:54:54.569Z,64.77
2022-10-23T17:59:56.391Z,65.06
2022-10-23T18:02:25.133Z,64.90
2022-10-23T18:04:54.009Z,64.59
2022-10-23T18:07:24.449Z,64.82
2022-10-23T18:09:54.452Z,64.57
2022-10-23T18:12:23.891Z,65.47
2022-10-23T18:14:52.749Z,65.88
2022-10-23T18:17:21.339Z,64.89
2022-10-23T18:19:51.820Z,64.87
2022-10-23T18:22:20.372Z,65.68
2022-10-23T18:24:51.345Z,64.89
2022-10-23T18:27:21.464Z,66.51
2022-10-23T18:29:53.624Z,65.84
2022-10-23T18:32:23.965Z,66.93
2022-10-23T18:34:53.199Z,65.37
2022-10-23T18:37:41.269Z,65.96
2022-10-23T18:40:13.840Z,66.88
2022-10-23T18:42:44.489Z,67.24
2022-10-23T18:45:15.814Z,65.40
2022-10-23T18:47:44.847Z,66.24
2022-10-23T18:50:14.192Z,65.92
2022-10-23T18:52:42.860Z,67.05
2022-10-23T18:55:15.475Z,65.84
2022-10-23T18:57:46.267Z,66.71
2022-10-23T19:00:22.737Z,66.54
2022-10-23T19:02:54.916Z,65.88
2022-10-23T19:05:24.815Z,67.05
2022-10-23T19:07:57.011Z,65.76
2022-10-23T19:10:32.878Z,66.57
2022-10-23T19:13:05.509Z,66.55
2022-10-23T19:15:37.684Z,65.28
2022-10-23T19:18:11.575Z,66.34
2022-10-23T19:20:44.501Z,65.49
2022-10-23T19:23:15.984Z,65.25
2022-10-23T19:25:49.245Z,66.50
2022-10-23T19:28:20.860Z,66.33
2022-10-23T19:30:50.655Z,65.76
2022-10-23T19:33:21.649Z,65.96
2022-10-23T19:35:52.300Z,65.95
2022-10-23T19:38:21.360Z,66.66
2022-10-23T19:40:50.470Z,66.91
2022-10-23T19:43:31.754Z,66.59
2022-10-23T19:46:18.665Z,66.86
2022-10-23T19:48:48.115Z,66.39
2022-10-23T19:51:17.325Z,66.86
2022-10-23T19:53:45.918Z,66.58
2022-10-23T19:56:14.844Z,65.75
2022-10-23T19:58:44.645Z,66.41
2022-10-23T20:01:15.420Z,66.84
2022-10-23T20:03:45.564Z,66.73
2022-10-23T20:06:15.584Z,66.36
2022-10-23T20:08:44.355Z,66.54
2022-10-23T20:11:20.387Z,65.66
2022-10-23T20:13:51.164Z,61.13
2022-10-23T20:16:20.735Z,63.43
2022-10-23T20:18:50.035Z,63.59
2022-10-23T20:21:19.097Z,63.67
2022-10-23T20:23:48.490Z,64.59
2022-10-23T20:26:22.004Z,64.57
2022-10-23T20:28:54.174Z,64.32
2022-10-23T20:31:24.054Z,65.28
2022-10-23T20:33:54.705Z,65.64
2022-10-23T20:36:27.404Z,65.22
2022-10-23T20:38:57.900Z,65.33
2022-10-23T20:41:29.090Z,64.90
2022-10-23T20:43:58.964Z,65.16
2022-10-23T20:46:28.514Z,64.70
2022-10-23T20:48:56.985Z,64.50
2022-10-23T20:51:27.304Z,64.21
2022-10-23T20:53:56.234Z,64.21
2022-10-23T20:56:31.462Z,64.58
2022-10-23T20:59:04.904Z,65.79
2022-10-23T21:01:34.435Z,65.25
2022-10-23T21:04:04.666Z,65.48
2022-10-23T21:06:51.974Z,65.28
2022-10-23T21:09:26.365Z,65.74
2022-10-23T21:11:54.865Z,65.78
2022-10-23T21:14:25.039Z,65.94
2022-10-23T21:16:53.475Z,66.18
2022-10-23T21:19:22.235Z,66.33
2022-10-23T21:21:50.726Z,66.00
2022-10-23T21:24:19.277Z,66.21
2022-10-23T21:26:48.777Z,66.37
2022-10-23T21:29:22.588Z,66.60
2022-10-23T21:31:59.975Z,66.23
2022-10-23T21:34:29.604Z,66.03
2022-10-23T21:37:14.639Z,65.81
2022-10-23T21:39:43.981Z,66.64
2022-10-23T21:42:13.236Z,66.90
2022-10-23T21:44:41.815Z,67.35
2022-10-23T21:47:11.986Z,67.27
2022-10-23T21:49:40.478Z,67.83
2022-10-23T21:52:09.026Z,67.66
2022-10-23T21:54:37.655Z,67.59
2022-10-23T21:57:06.165Z,67.60
2022-10-23T21:59:36.057Z,67.40
2022-10-23T22:02:05.503Z,67.35
2022-10-23T22:04:35.845Z,67.93
2022-10-23T22:07:04.258Z,67.24
2022-10-23T22:09:33.953Z,66.63
2022-10-23T22:12:02.864Z,66.54
2022-10-23T22:14:34.104Z,66.58
2022-10-23T22:17:02.515Z,67.14
2022-10-23T22:19:31.596Z,67.42
2022-10-23T22:22:01.907Z,67.78
2022-10-23T22:24:30.794Z,67.59
2022-10-23T22:26:59.305Z,67.23
2022-10-23T22:29:29.924Z,67.66
2022-10-23T22:31:59.425Z,67.50
2022-10-23T22:37:19.805Z,67.60
2022-10-23T22:39:51.175Z,67.54
2022-10-23T22:42:20.195Z,67.20
2022-10-23T22:44:49.326Z,67.08
2022-10-23T22:47:17.756Z,67.21
2022-10-23T22:49:46.404Z,67.07
2022-10-23T22:52:15.056Z,67.32
2022-10-23T22:54:45.115Z,67.10
2022-10-23T22:57:13.591Z,67.42
2022-10-23T22:59:44.565Z,67.81
2022-10-23T23:02:15.965Z,68.27
2022-10-23T23:04:44.454Z,67.99
2022-10-23T23:07:14.566Z,67.84
2022-10-23T23:09:46.475Z,68.09
2022-10-23T23:12:15.844Z,67.60
2022-10-23T23:14:44.685Z,67.63
2022-10-23T23:17:14.164Z,67.72
2022-10-23T23:19:42.687Z,67.74
2022-10-23T23:22:11.314Z,67.43
2022-10-23T23:24:40.225Z,67.49
2022-10-23T23:27:10.505Z,67.70
2022-10-23T23:29:42.044Z,67.51
2022-10-23T23:32:13.826Z,67.53
2022-10-23T23:34:45.225Z,67.76
2022-10-23T23:37:14.155Z,68.38
2022-10-23T23:39:44.275Z,68.64
2022-10-23T23:42:17.164Z,68.79
2022-10-23T23:45:02.472Z,68.78
2022-10-23T23:47:46.421Z,68.19
2022-10-23T23:50:17.404Z,68.49
2022-10-23T23:52:47.244Z,68.81
2022-10-23T23:55:38.651Z,69.09
2022-10-23T23:58:12.034Z,69.12
